Time;durP1;ratioP1;P1;durP2;ratioP2;P2;SDS_P1;SDS_P2;PMS_P1;PMS_P2;Temp;Humidity;BMP_temperature;BMP_pressure;BME280_temperature;BME280_humidity;BME280_pressure;Samples;Min_cycle;Max_cycle;Signal;HPM_P1;HPM_P2
2023/09/25 00:01:36;;;;;;;4.63;3.77;;;13.80;95.90;;;;;;10355313;28;20250;-78
2023/09/25 00:06:38;;;;;;;4.03;3.50;;;13.80;95.80;;;;;;10323003;28;20212;-78
2023/09/25 00:11:42;;;;;;;3.27;3.07;;;13.80;96.00;;;;;;10326882;28;20235;-78
2023/09/25 00:16:44;;;;;;;3.70;3.40;;;13.80;96.10;;;;;;10362125;28;20212;-78
2023/09/25 00:21:47;;;;;;;3.77;3.47;;;13.70;96.40;;;;;;10363843;28;20236;-78
2023/09/25 00:26:50;;;;;;;3.27;3.07;;;13.70;96.10;;;;;;10344244;28;20224;-78
2023/09/25 00:31:52;;;;;;;4.47;3.97;;;13.70;96.10;;;;;;10343274;28;20386;-78
2023/09/25 00:36:55;;;;;;;4.27;3.87;;;13.70;96.30;;;;;;10330566;28;20204;-78
2023/09/25 00:41:59;;;;;;;3.33;3.03;;;13.70;95.90;;;;;;10324522;28;20337;-78
2023/09/25 00:47:02;;;;;;;3.40;3.20;;;13.70;95.80;;;;;;10368942;28;20319;-78
2023/09/25 00:52:05;;;;;;;4.17;2.90;;;13.70;95.50;;;;;;10345200;28;20259;-78
2023/09/25 00:57:10;;;;;;;3.50;3.30;;;13.70;95.60;;;;;;10322283;28;20266;-78
2023/09/25 01:02:12;;;;;;;4.37;3.90;;;13.60;95.70;;;;;;10299023;28;20294;-78
2023/09/25 01:07:16;;;;;;;3.67;3.33;;;13.50;95.60;;;;;;10340382;28;20216;-78
2023/09/25 01:12:20;;;;;;;4.10;3.70;;;13.50;95.70;;;;;;10328277;28;20228;-78
2023/09/25 01:17:22;;;;;;;3.60;3.30;;;13.40;95.80;;;;;;10354492;28;20202;-78
2023/09/25 01:22:26;;;;;;;3.67;3.37;;;13.30;96.20;;;;;;10346592;28;20261;-78
2023/09/25 01:27:28;;;;;;;3.43;3.20;;;13.30;96.20;;;;;;10375891;28;20195;-78
2023/09/25 01:32:30;;;;;;;3.80;3.50;;;13.30;96.20;;;;;;10335715;28;20203;-78
2023/09/25 01:37:34;;;;;;;4.17;3.87;;;13.30;96.00;;;;;;10353899;28;20219;-78
2023/09/25 01:42:36;;;;;;;4.40;3.47;;;13.20;96.30;;;;;;10360557;28;20253;-77
2023/09/25 01:47:39;;;;;;;3.70;3.30;;;13.30;96.10;;;;;;10388415;28;20212;-77
2023/09/25 01:52:43;;;;;;;4.40;4.00;;;13.10;96.10;;;;;;10366995;28;20257;-78
2023/09/25 01:57:45;;;;;;;3.67;3.43;;;13.10;96.40;;;;;;10365426;28;20200;-77
2023/09/25 02:02:47;;;;;;;4.70;3.53;;;13.10;96.30;;;;;;10359733;28;20234;-78
2023/09/25 02:07:51;;;;;;;3.53;3.23;;;13.10;96.20;;;;;;10361433;28;20207;-77
2023/09/25 02:12:53;;;;;;;3.60;3.30;;;13.10;96.40;;;;;;10360973;28;20218;-78
2023/09/25 02:17:55;;;;;;;3.77;3.47;;;13.10;96.30;;;;;;10361962;28;20230;-78
2023/09/25 02:23:01;;;;;;;3.40;3.20;;;13.10;96.50;;;;;;10360379;28;20223;-78
2023/09/25 02:28:03;;;;;;;4.50;3.90;;;13.10;96.60;;;;;;10361922;28;20241;-78
2023/09/25 02:33:05;;;;;;;3.70;3.43;;;13.00;96.50;;;;;;10359939;28;20295;-78
2023/09/25 02:38:08;;;;;;;6.13;3.53;;;13.00;96.30;;;;;;10361914;28;20285;-78
2023/09/25 02:43:11;;;;;;;3.37;3.10;;;12.90;96.60;;;;;;10352409;28;20223;-78
2023/09/25 02:48:13;;;;;;;4.20;3.77;;;12.90;96.40;;;;;;10375803;28;20317;-78
2023/09/25 02:53:16;;;;;;;4.03;3.73;;;12.80;96.40;;;;;;10336592;28;20223;-78
2023/09/25 02:58:19;;;;;;;3.97;3.63;;;12.70;97.10;;;;;;10335060;28;20306;-78
2023/09/25 03:03:21;;;;;;;3.53;3.23;;;12.70;96.70;;;;;;10367562;28;20222;-78
2023/09/25 03:08:24;;;;;;;5.00;4.13;;;12.60;96.80;;;;;;10351531;28;20773;-77
2023/09/25 03:13:26;;;;;;;3.83;3.57;;;12.60;96.60;;;;;;10345663;28;20200;-78
2023/09/25 03:18:28;;;;;;;3.90;3.20;;;12.60;96.70;;;;;;10381220;22;20310;-80
2023/09/25 03:23:33;;;;;;;3.80;3.50;;;12.50;96.80;;;;;;10406605;28;20222;-80
2023/09/25 03:28:35;;;;;;;3.50;3.30;;;12.50;96.60;;;;;;10369158;28;20278;-80
2023/09/25 03:33:38;;;;;;;4.20;3.90;;;12.50;96.80;;;;;;10367416;28;20214;-81
2023/09/25 03:38:41;;;;;;;5.20;3.03;;;12.40;97.10;;;;;;10349759;28;20305;-81
2023/09/25 03:43:44;;;;;;;5.80;2.90;;;12.40;97.10;;;;;;10390124;28;20380;-80
2023/09/25 03:48:46;;;;;;;3.70;3.40;;;12.30;96.80;;;;;;10398338;28;20234;-80
2023/09/25 03:53:49;;;;;;;3.20;2.47;;;12.30;96.60;;;;;;10388618;28;20200;-80
2023/09/25 03:58:52;;;;;;;3.40;3.10;;;12.20;96.90;;;;;;10385428;28;20235;-80
2023/09/25 04:03:54;;;;;;;5.60;3.47;;;12.30;96.80;;;;;;10398340;28;20282;-80
2023/09/25 04:08:57;;;;;;;3.23;3.03;;;12.20;96.70;;;;;;10378816;28;20222;-80
2023/09/25 04:14:00;;;;;;;3.50;3.20;;;12.20;97.10;;;;;;10385826;28;20200;-80
2023/09/25 04:19:04;;;;;;;2.87;2.67;;;12.20;97.20;;;;;;10401449;28;20235;-80
2023/09/25 04:24:10;;;;;;;2.83;2.63;;;12.20;97.20;;;;;;10373713;28;20284;-80
2023/09/25 04:29:17;;;;;;;3.00;2.80;;;12.20;97.20;;;;;;10378470;28;20696;-79
2023/09/25 04:34:19;;;;;;;3.50;3.20;;;12.20;96.80;;;;;;10384632;28;20194;-81
2023/09/25 04:39:23;;;;;;;3.53;3.23;;;12.10;97.00;;;;;;10379788;28;20234;-80
2023/09/25 04:44:25;;;;;;;3.63;3.43;;;12.10;96.90;;;;;;10388515;28;20226;-81
2023/09/25 04:49:27;;;;;;;3.50;3.20;;;12.00;97.00;;;;;;10396291;28;20219;-80
2023/09/25 04:54:32;;;;;;;4.30;3.13;;;12.00;97.40;;;;;;10379902;28;20208;-80
2023/09/25 04:59:34;;;;;;;4.77;3.37;;;12.00;97.50;;;;;;10390992;28;20257;-80
2023/09/25 05:04:36;;;;;;;3.50;3.30;;;12.00;97.50;;;;;;10371262;28;20227;-79
2023/09/25 05:09:40;;;;;;;3.83;3.43;;;12.00;97.50;;;;;;10370373;28;20226;-79
2023/09/25 05:14:42;;;;;;;3.57;3.10;;;12.00;97.60;;;;;;10402491;28;20420;-80
2023/09/25 05:19:44;;;;;;;3.63;3.33;;;12.00;97.70;;;;;;10389295;28;20695;-79
2023/09/25 05:24:48;;;;;;;3.10;2.90;;;12.00;97.70;;;;;;10378577;28;20837;-79
2023/09/25 05:29:51;;;;;;;3.13;2.93;;;12.00;97.60;;;;;;10380558;28;20670;-80
2023/09/25 05:34:54;;;;;;;4.67;3.27;;;12.10;97.80;;;;;;10376970;28;20194;-80
2023/09/25 05:39:58;;;;;;;3.30;3.10;;;12.10;97.70;;;;;;10402266;28;20226;-79
2023/09/25 05:45:00;;;;;;;3.63;3.33;;;12.10;97.80;;;;;;10378024;28;20302;-80
2023/09/25 05:50:02;;;;;;;3.70;2.87;;;12.20;97.90;;;;;;10385230;28;20280;-79
2023/09/25 05:55:07;;;;;;;2.73;2.50;;;12.20;97.90;;;;;;10374579;28;20677;-79
2023/09/25 06:00:11;;;;;;;4.67;4.27;;;12.10;97.90;;;;;;10424776;28;20238;-81
2023/09/25 06:05:13;;;;;;;4.27;3.87;;;12.10;98.00;;;;;;10381743;28;20254;-79
2023/09/25 06:10:18;;;;;;;3.30;3.00;;;12.20;98.10;;;;;;10381400;28;20242;-79
2023/09/25 06:15:22;;;;;;;4.20;3.80;;;12.20;98.10;;;;;;10372465;28;20202;-79
2023/09/25 06:20:26;;;;;;;4.47;3.90;;;12.20;98.20;;;;;;10418077;28;20238;-79
2023/09/25 06:25:30;;;;;;;3.93;3.53;;;12.20;98.30;;;;;;10416399;28;20621;-79
2023/09/25 06:30:32;;;;;;;3.53;3.23;;;12.30;98.40;;;;;;10386492;28;20633;-79
2023/09/25 06:35:34;;;;;;;4.23;3.50;;;12.30;98.40;;;;;;10387997;28;20563;-79
2023/09/25 06:40:44;;;;;;;5.80;4.17;;;12.40;98.30;;;;;;10384307;28;20231;-79
2023/09/25 06:45:46;;;;;;;6.63;3.73;;;12.40;98.40;;;;;;10388011;28;20317;-79
2023/09/25 06:50:48;;;;;;;4.57;3.77;;;12.50;98.60;;;;;;10381619;28;20238;-76
2023/09/25 06:55:52;;;;;;;4.43;3.90;;;12.50;98.70;;;;;;10420090;28;20221;-79
2023/09/25 07:00:54;;;;;;;3.80;3.50;;;12.60;98.70;;;;;;10381998;28;20231;-79
2023/09/25 07:05:56;;;;;;;6.00;4.33;;;12.70;98.70;;;;;;10372814;28;20231;-79
2023/09/25 07:11:00;;;;;;;4.80;3.90;;;12.80;98.80;;;;;;10366785;28;20238;-79
2023/09/25 07:16:08;;;;;;;4.10;3.70;;;12.80;98.70;;;;;;10392791;28;20206;-79
2023/09/25 07:21:10;;;;;;;4.00;3.70;;;13.00;98.60;;;;;;10368638;28;20234;-79
2023/09/25 07:26:15;;;;;;;3.87;3.33;;;13.00;98.40;;;;;;10381417;28;20234;-79
2023/09/25 07:31:21;;;;;;;6.30;4.10;;;13.10;98.40;;;;;;10392646;28;20226;-79
2023/09/25 07:36:24;;;;;;;3.47;3.10;;;13.20;98.40;;;;;;10375389;28;20277;-79
2023/09/25 07:41:27;;;;;;;4.50;4.10;;;13.30;98.30;;;;;;10393044;28;20222;-79
2023/09/25 07:46:31;;;;;;;6.40;5.50;;;13.40;98.50;;;;;;10394025;28;20645;-79
2023/09/25 07:51:33;;;;;;;5.90;5.10;;;13.60;98.50;;;;;;10417645;28;20233;-79
2023/09/25 07:56:36;;;;;;;9.80;5.63;;;13.70;98.50;;;;;;10383786;28;20377;-79
2023/09/25 08:01:42;;;;;;;7.87;6.30;;;13.80;98.70;;;;;;10397117;28;20233;-79
2023/09/25 08:06:45;;;;;;;11.27;5.87;;;14.00;98.30;;;;;;10376876;28;20572;-80
2023/09/25 08:11:48;;;;;;;5.90;5.30;;;14.20;98.20;;;;;;10359332;28;20626;-80
2023/09/25 08:16:51;;;;;;;7.83;5.40;;;14.30;98.50;;;;;;10399977;28;20225;-79
2023/09/25 08:21:53;;;;;;;5.27;4.73;;;14.40;98.60;;;;;;10408506;28;20230;-79
2023/09/25 08:26:57;;;;;;;6.70;5.37;;;14.50;98.60;;;;;;10384338;28;20231;-80
2023/09/25 08:31:59;;;;;;;5.83;5.23;;;14.60;98.60;;;;;;10383273;28;20228;-79
2023/09/25 08:37:01;;;;;;;7.30;4.50;;;14.70;98.60;;;;;;10394261;28;20273;-79
2023/09/25 08:42:05;;;;;;;7.67;5.17;;;14.90;98.50;;;;;;10381828;28;20227;-80
2023/09/25 08:47:07;;;;;;;5.57;4.27;;;15.00;98.50;;;;;;10405157;28;20236;-80
2023/09/25 08:52:09;;;;;;;5.27;4.60;;;15.10;98.40;;;;;;10378556;28;20305;-80
2023/09/25 08:57:13;;;;;;;4.70;4.00;;;15.20;97.80;;;;;;10383396;28;20547;-80
2023/09/25 09:02:16;;;;;;;4.50;3.77;;;15.30;98.00;;;;;;10412518;28;20265;-80
2023/09/25 09:07:18;;;;;;;4.10;3.63;;;15.50;97.80;;;;;;10398898;28;20231;-79
2023/09/25 09:12:22;;;;;;;4.33;3.93;;;15.60;97.90;;;;;;10410427;28;20242;-80
2023/09/25 09:17:29;;;;;;;4.40;3.90;;;15.60;97.70;;;;;;10408794;28;20313;-80
2023/09/25 09:22:31;;;;;;;4.00;3.47;;;15.80;97.70;;;;;;10489582;23;20238;-78
2023/09/25 09:27:36;;;;;;;3.83;3.40;;;15.90;97.40;;;;;;10431591;28;20229;-78
2023/09/25 09:32:39;;;;;;;3.50;3.20;;;16.00;97.70;;;;;;10470073;28;20214;-78
2023/09/25 09:37:41;;;;;;;3.90;3.50;;;16.20;97.50;;;;;;10446152;28;20221;-80
2023/09/25 09:42:46;;;;;;;5.40;3.40;;;16.50;97.00;;;;;;10433032;28;20229;-79
2023/09/25 09:47:50;;;;;;;2.70;2.53;;;16.70;96.80;;;;;;10435281;28;20265;-79
2023/09/25 09:52:52;;;;;;;4.20;3.00;;;17.00;95.60;;;;;;10435734;28;20245;-79
2023/09/25 09:57:56;;;;;;;5.40;3.30;;;17.20;94.80;;;;;;10410340;28;20234;-80
2023/09/25 10:02:58;;;;;;;3.47;3.17;;;17.40;95.00;;;;;;10407356;28;20234;-79
2023/09/25 10:08:06;;;;;;;6.20;4.30;;;17.40;94.80;;;;;;10416021;28;20230;-79
2023/09/25 10:13:13;;;;;;;4.33;3.33;;;17.40;94.70;;;;;;10414907;28;20223;-80
2023/09/25 10:18:15;;;;;;;4.00;3.30;;;17.30;94.60;;;;;;10403523;28;20253;-79
2023/09/25 10:23:23;;;;;;;4.87;3.13;;;17.20;94.70;;;;;;10430479;28;20295;-80
2023/09/25 10:28:28;;;;;;;3.40;3.10;;;17.20;94.20;;;;;;10403994;28;20199;-79
2023/09/25 10:33:35;;;;;;;3.63;3.20;;;17.30;94.20;;;;;;10412285;28;20222;-79
2023/09/25 10:38:41;;;;;;;3.37;2.93;;;17.30;94.60;;;;;;10418428;28;20206;-80
2023/09/25 10:43:45;;;;;;;3.23;2.93;;;17.30;95.00;;;;;;10432017;28;20234;-79
2023/09/25 10:48:48;;;;;;;3.33;3.03;;;17.20;95.10;;;;;;10429741;28;20234;-79
2023/09/25 10:53:50;;;;;;;3.53;3.23;;;17.30;93.90;;;;;;10439205;28;20271;-80
2023/09/25 10:58:54;;;;;;;3.10;2.90;;;17.30;94.90;;;;;;10437029;28;20226;-79
2023/09/25 11:03:59;;;;;;;3.20;2.90;;;17.40;94.60;;;;;;10432812;28;20242;-79
2023/09/25 11:09:07;;;;;;;5.13;3.73;;;17.40;94.60;;;;;;10427544;28;20242;-79
2023/09/25 11:14:11;;;;;;;4.53;3.70;;;17.60;94.30;;;;;;10428570;28;20690;-80
2023/09/25 11:19:15;;;;;;;3.40;3.20;;;17.60;94.30;;;;;;10415470;28;20281;-79
2023/09/25 11:24:19;;;;;;;2.63;2.43;;;17.60;94.90;;;;;;10410409;28;20313;-79
2023/09/25 11:29:30;;;;;;;3.20;2.90;;;17.60;94.80;;;;;;10430908;28;20245;-79
2023/09/25 11:34:32;;;;;;;4.17;3.33;;;17.70;93.90;;;;;;10408160;28;20237;-80
2023/09/25 11:39:34;;;;;;;3.10;2.63;;;17.70;94.50;;;;;;10409752;28;20218;-79
2023/09/25 11:44:38;;;;;;;2.53;2.33;;;17.80;94.30;;;;;;10410669;28;20222;-79
2023/09/25 11:49:40;;;;;;;3.40;3.20;;;17.80;95.00;;;;;;10427802;28;20234;-79
2023/09/25 11:54:42;;;;;;;3.73;2.60;;;17.90;94.30;;;;;;10433644;28;20205;-79
2023/09/25 11:59:46;;;;;;;2.80;2.60;;;17.90;94.10;;;;;;10411810;28;20685;-79
2023/09/25 12:04:48;;;;;;;2.87;2.67;;;18.00;93.70;;;;;;10429771;28;20285;-79
2023/09/25 12:09:51;;;;;;;4.87;2.53;;;18.10;94.10;;;;;;10425689;28;20222;-80
2023/09/25 12:14:56;;;;;;;3.10;2.80;;;18.10;94.00;;;;;;10428877;28;20191;-79
2023/09/25 12:19:58;;;;;;;2.87;2.67;;;18.20;93.40;;;;;;10424884;28;20226;-79
2023/09/25 12:25:00;;;;;;;2.50;2.40;;;18.20;93.90;;;;;;10427408;28;20330;-79
2023/09/25 12:30:05;;;;;;;2.80;2.70;;;18.20;93.80;;;;;;10405936;28;20242;-79
2023/09/25 12:35:11;;;;;;;2.70;2.50;;;18.30;92.50;;;;;;10427361;28;20202;-79
2023/09/25 12:40:15;;;;;;;3.10;2.90;;;18.40;92.20;;;;;;10432305;28;20237;-80
2023/09/25 12:45:18;;;;;;;2.90;2.60;;;18.50;92.50;;;;;;10432223;28;20239;-79
2023/09/25 12:50:21;;;;;;;2.63;2.43;;;18.50;93.20;;;;;;10412598;28;20233;-80
2023/09/25 12:55:23;;;;;;;3.73;2.37;;;18.60;92.60;;;;;;10430424;28;20289;-79
2023/09/25 13:00:26;;;;;;;4.00;3.13;;;18.50;92.90;;;;;;10422269;28;20222;-79
2023/09/25 13:05:29;;;;;;;2.67;2.30;;;18.50;92.60;;;;;;10426266;28;20226;-78
2023/09/25 13:10:31;;;;;;;2.30;2.20;;;18.60;91.50;;;;;;10406298;28;20234;-78
2023/09/25 13:15:34;;;;;;;3.23;2.07;;;18.70;92.10;;;;;;10426910;28;20199;-78
2023/09/25 13:20:36;;;;;;;2.63;2.43;;;18.70;91.60;;;;;;10426035;28;20320;-78
2023/09/25 13:25:38;;;;;;;2.50;2.23;;;18.70;92.50;;;;;;10412122;28;20222;-78
2023/09/25 13:30:43;;;;;;;2.10;2.00;;;18.70;92.80;;;;;;10425167;28;20235;-78
2023/09/25 13:35:45;;;;;;;2.20;2.00;;;18.80;91.60;;;;;;10427102;28;20210;-78
2023/09/25 13:40:47;;;;;;;3.43;2.03;;;18.90;92.10;;;;;;10424947;28;20293;-77
2023/09/25 13:45:50;;;;;;;2.40;2.30;;;18.90;92.00;;;;;;10431984;28;20662;-78
2023/09/25 13:50:52;;;;;;;2.10;2.00;;;19.00;91.80;;;;;;10435405;28;20732;-78
2023/09/25 13:55:54;;;;;;;2.90;2.70;;;19.10;91.70;;;;;;10438349;28;20252;-79
2023/09/25 14:00:59;;;;;;;3.93;2.60;;;19.10;92.30;;;;;;10428569;28;20281;-79
2023/09/25 14:06:05;;;;;;;2.20;2.10;;;19.10;91.00;;;;;;10426396;28;20245;-79
2023/09/25 14:11:07;;;;;;;3.93;3.20;;;19.30;91.60;;;;;;10418595;28;20249;-79
2023/09/25 14:16:11;;;;;;;2.60;2.40;;;19.30;90.90;;;;;;10422720;28;20273;-79
2023/09/25 14:21:17;;;;;;;2.30;2.20;;;19.40;91.30;;;;;;10409948;28;20222;-78
2023/09/25 14:26:19;;;;;;;2.70;1.80;;;19.40;91.50;;;;;;10409458;28;20221;-77
2023/09/25 14:31:23;;;;;;;2.17;2.00;;;19.40;91.20;;;;;;10407852;28;20739;-77
2023/09/25 14:36:26;;;;;;;2.17;2.00;;;19.50;90.50;;;;;;10424847;28;20194;-79
2023/09/25 14:41:28;;;;;;;2.97;2.07;;;19.50;91.20;;;;;;10411943;28;20801;-78
2023/09/25 14:46:31;;;;;;;2.93;2.40;;;19.50;91.20;;;;;;10432558;28;20689;-78
2023/09/25 14:51:33;;;;;;;1.70;1.60;;;19.50;91.70;;;;;;10432409;28;20575;-78
2023/09/25 14:56:36;;;;;;;5.90;2.30;;;19.50;91.80;;;;;;10416661;28;20210;-79
2023/09/25 15:01:39;;;;;;;1.97;1.87;;;19.50;91.30;;;;;;10433455;28;20246;-78
2023/09/25 15:06:42;;;;;;;5.30;2.30;;;19.50;92.00;;;;;;10435340;28;20316;-78
2023/09/25 15:11:44;;;;;;;2.30;2.10;;;19.50;93.60;;;;;;10417144;28;20214;-78
2023/09/25 15:16:47;;;;;;;2.30;2.10;;;19.50;91.90;;;;;;10437334;28;20198;-78
2023/09/25 15:21:49;;;;;;;2.20;2.00;;;19.50;92.30;;;;;;10419028;28;20249;-79
2023/09/25 15:26:51;;;;;;;2.00;1.90;;;19.50;92.30;;;;;;10435771;28;20233;-79
2023/09/25 15:31:55;;;;;;;2.07;1.97;;;19.50;92.40;;;;;;10435885;28;20693;-79
2023/09/25 15:36:57;;;;;;;2.10;2.00;;;19.50;93.30;;;;;;10440552;28;20198;-79
2023/09/25 15:41:59;;;;;;;2.60;2.40;;;19.40;93.00;;;;;;10447300;28;20230;-78
2023/09/25 15:47:02;;;;;;;2.17;2.03;;;19.40;94.00;;;;;;10417405;28;20694;-79
2023/09/25 15:52:04;;;;;;;4.40;2.47;;;19.40;93.70;;;;;;10390308;28;20239;-79
2023/09/25 15:57:06;;;;;;;2.10;2.00;;;19.30;94.30;;;;;;10399819;28;20195;-79
2023/09/25 16:02:10;;;;;;;2.30;2.20;;;19.30;94.70;;;;;;10427561;28;20222;-79
2023/09/25 16:07:12;;;;;;;3.90;2.30;;;19.20;93.90;;;;;;10399727;28;20240;-79
2023/09/25 16:12:15;;;;;;;4.20;2.40;;;19.20;93.60;;;;;;10412248;28;20214;-79
2023/09/25 16:17:18;;;;;;;5.60;2.67;;;19.30;93.70;;;;;;10402639;28;20198;-78
2023/09/25 16:22:20;;;;;;;2.40;2.30;;;19.30;94.10;;;;;;10405828;28;20261;-79
2023/09/25 16:27:22;;;;;;;5.10;2.57;;;19.30;94.20;;;;;;10409541;28;20249;-78
2023/09/25 16:32:26;;;;;;;3.13;2.73;;;19.30;95.60;;;;;;10416870;28;20288;-79
2023/09/25 16:37:28;;;;;;;3.20;3.00;;;19.20;96.20;;;;;;10417907;28;20230;-79
2023/09/25 16:42:56;;;;;;;;;;;;;;;;;;;;;
2023/09/25 16:49:02;;;;;;;2.83;2.63;;;19.00;96.00;;;;;;10397676;28;20224;-79
2023/09/25 16:54:55;;;;;;;3.50;3.20;;;19.00;96.00;;;;;;10409970;28;20206;-79
2023/09/25 17:00:04;;;;;;;3.43;2.83;;;18.90;96.20;;;;;;10379992;28;20222;-80
2023/09/25 17:05:39;;;;;;;2.70;2.50;;;18.90;96.30;;;;;;10411515;28;20225;-78
2023/09/25 17:10:41;;;;;;;2.53;2.37;;;18.80;96.30;;;;;;10447672;28;20729;-79
2023/09/25 17:15:43;;;;;;;2.73;2.53;;;18.70;96.50;;;;;;10421221;28;20230;-78
2023/09/25 17:20:47;;;;;;;3.20;2.90;;;18.70;96.80;;;;;;10436363;28;20234;-80
2023/09/25 17:25:49;;;;;;;3.20;3.00;;;18.50;97.00;;;;;;10416799;28;20226;-79
2023/09/25 17:30:51;;;;;;;3.73;3.50;;;18.50;97.40;;;;;;10380730;28;20627;-79
2023/09/25 17:35:55;;;;;;;4.80;3.10;;;18.30;97.40;;;;;;10375504;28;20212;-80
2023/09/25 17:40:57;;;;;;;3.23;3.03;;;18.20;97.60;;;;;;10377746;28;20230;-79
2023/09/25 17:45:59;;;;;;;2.50;2.30;;;18.10;97.80;;;;;;10391732;28;20363;-79
2023/09/25 17:57:17;;;;;;;3.77;3.33;;;18.00;98.00;;;;;;10372433;28;20215;-79
2023/09/25 18:09:50;;;;;;;4.33;4.03;;;17.80;98.20;;;;;;10332221;28;20818;-79
2023/09/25 18:21:43;;;;;;;3.90;3.60;;;17.60;98.40;;;;;;10354581;28;20235;-79
2023/09/25 18:27:43;;;;;;;3.97;3.70;;;17.60;98.50;;;;;;10353557;28;20223;-80
2023/09/25 18:40:06;;;;;;;;;;;;;;;;;;;;;
2023/09/25 18:46:08;;;;;;;4.90;4.50;;;17.40;99.00;;;;;;10307792;28;20480;-78
2023/09/25 18:52:13;;;;;;;4.10;3.80;;;17.40;99.10;;;;;;10342792;28;20337;-79
2023/09/25 18:57:57;;;;;;;5.13;4.00;;;17.30;99.10;;;;;;10350126;28;20264;-78
2023/09/25 19:03:15;;;;;;;4.50;4.20;;;17.20;99.30;;;;;;10369001;28;20234;-79
2023/09/25 19:08:27;;;;;;;5.90;5.30;;;17.10;99.40;;;;;;10344379;28;20216;-78
2023/09/25 19:13:44;;;;;;;5.63;5.13;;;17.10;99.70;;;;;;10341664;28;20224;-79
2023/09/25 19:18:53;;;;;;;4.50;4.10;;;17.00;99.90;;;;;;10360542;28;20740;-79
2023/09/25 19:24:27;;;;;;;5.03;4.63;;;17.00;99.90;;;;;;10355546;28;20200;-79
2023/09/25 19:29:39;;;;;;;5.20;4.90;;;17.00;99.90;;;;;;10382995;22;20258;-78
2023/09/25 19:40:43;;;;;;;4.87;4.47;;;16.90;99.90;;;;;;10360135;28;20856;-79
2023/09/25 19:46:13;;;;;;;;;;;;;;;;;;;;;
2023/09/25 19:51:43;;;;;;;;;;;;;;;;;;;;;
2023/09/25 20:03:03;;;;;;;4.53;4.13;;;16.80;99.90;;;;;;10326769;28;20224;-79
2023/09/25 20:08:15;;;;;;;4.90;4.60;;;16.70;99.90;;;;;;10349687;28;20228;-80
2023/09/25 20:14:03;;;;;;;5.07;4.13;;;16.60;99.90;;;;;;10345544;28;20382;-80
2023/09/25 20:19:09;;;;;;;4.27;3.97;;;16.60;99.90;;;;;;10301994;28;20242;-80
2023/09/25 20:24:13;;;;;;;4.60;4.10;;;16.60;99.90;;;;;;10344281;28;20206;-77
2023/09/25 20:29:29;;;;;;;5.30;4.87;;;16.50;99.90;;;;;;10350292;28;20285;-80
2023/09/25 20:34:37;;;;;;;4.83;4.43;;;16.50;99.90;;;;;;10333587;28;20231;-79
2023/09/25 20:39:42;;;;;;;5.13;4.83;;;16.50;99.90;;;;;;10310333;28;20234;-80
2023/09/25 20:44:59;;;;;;;4.60;4.30;;;16.50;99.90;;;;;;10352112;28;20598;-79
2023/09/25 20:50:12;;;;;;;4.80;4.40;;;16.40;99.90;;;;;;10345757;28;20230;-80
2023/09/25 20:55:26;;;;;;;4.43;4.10;;;16.40;99.90;;;;;;10344577;28;20226;-80
2023/09/25 21:00:31;;;;;;;5.10;4.70;;;16.30;99.90;;;;;;10335154;28;20295;-78
2023/09/25 21:05:44;;;;;;;4.97;4.50;;;16.30;99.90;;;;;;10355579;28;20226;-80
2023/09/25 21:16:24;;;;;;;4.93;4.53;;;16.10;99.90;;;;;;10333518;28;20309;-78
2023/09/25 21:21:29;;;;;;;4.73;4.43;;;16.10;99.90;;;;;;10346924;23;20231;-78
2023/09/25 21:26:31;;;;;;;5.07;4.77;;;16.10;99.90;;;;;;10423953;28;20226;-78
2023/09/25 21:31:35;;;;;;;5.30;4.80;;;16.00;99.90;;;;;;10387860;28;20790;-78
2023/09/25 21:36:37;;;;;;;7.70;4.27;;;16.00;99.90;;;;;;10364782;28;20257;-78
2023/09/25 21:41:39;;;;;;;6.73;4.83;;;16.00;99.90;;;;;;10356770;28;20276;-78
2023/09/25 21:46:43;;;;;;;5.30;4.43;;;16.00;99.90;;;;;;10354491;28;20228;-77
2023/09/25 21:51:45;;;;;;;5.20;4.80;;;15.90;99.90;;;;;;10350341;28;20597;-78
2023/09/25 21:56:47;;;;;;;4.40;4.10;;;15.90;99.90;;;;;;10377577;28;20208;-78
2023/09/25 22:01:50;;;;;;;4.80;4.40;;;15.90;99.90;;;;;;10377512;28;20219;-77
2023/09/25 22:06:53;;;;;;;4.37;4.07;;;15.90;99.90;;;;;;10351509;28;20294;-78
2023/09/25 22:11:55;;;;;;;4.80;4.30;;;15.80;99.90;;;;;;10345392;28;20511;-79
2023/09/25 22:16:58;;;;;;;4.40;4.03;;;15.80;99.90;;;;;;10349978;28;20251;-77
2023/09/25 22:22:00;;;;;;;4.80;4.50;;;15.80;99.90;;;;;;10329439;28;20255;-78
2023/09/25 22:27:03;;;;;;;4.93;4.63;;;15.70;99.90;;;;;;10345502;28;20228;-77
2023/09/25 22:32:06;;;;;;;5.03;4.63;;;15.70;99.90;;;;;;10325367;28;20227;-78
2023/09/25 22:37:09;;;;;;;4.47;4.17;;;15.70;99.90;;;;;;10334850;28;20204;-77
2023/09/25 22:42:11;;;;;;;5.53;5.13;;;15.70;99.90;;;;;;10341819;28;20227;-78
2023/09/25 22:47:14;;;;;;;4.73;4.33;;;15.60;99.90;;;;;;10359620;28;20270;-78
2023/09/25 22:52:16;;;;;;;5.07;4.67;;;15.60;99.90;;;;;;10349228;28;20227;-78
2023/09/25 22:57:18;;;;;;;4.30;4.10;;;15.60;99.90;;;;;;10352700;28;20644;-77
2023/09/25 23:02:23;;;;;;;5.20;4.90;;;15.50;99.90;;;;;;10339572;28;20247;-77
2023/09/25 23:07:25;;;;;;;4.67;4.27;;;15.50;99.90;;;;;;10360536;28;20215;-76
2023/09/25 23:12:27;;;;;;;4.90;4.60;;;15.40;99.90;;;;;;10408427;28;20230;-78
2023/09/25 23:17:31;;;;;;;4.90;4.50;;;15.40;99.90;;;;;;10374107;28;20203;-78
2023/09/25 23:22:34;;;;;;;5.17;4.87;;;15.40;99.90;;;;;;10361282;28;20263;-78
2023/09/25 23:27:37;;;;;;;5.00;4.53;;;15.40;99.90;;;;;;10345671;28;20674;-78
2023/09/25 23:32:41;;;;;;;5.17;4.67;;;15.40;99.90;;;;;;10351119;28;20212;-78
2023/09/25 23:37:46;;;;;;;4.33;4.10;;;15.30;99.90;;;;;;10326386;28;20211;-78
2023/09/25 23:42:49;;;;;;;4.77;4.40;;;15.30;99.90;;;;;;10352431;28;20702;-77
2023/09/25 23:47:53;;;;;;;5.93;5.20;;;15.30;99.90;;;;;;10365301;28;20226;-78
2023/09/25 23:52:55;;;;;;;5.07;4.77;;;15.20;99.90;;;;;;10378900;28;20227;-78
2023/09/25 23:57:57;;;;;;;4.90;4.60;;;15.20;99.90;;;;;;10346248;28;20203;-78
